Time;durP1;ratioP1;P1;durP2;ratioP2;P2;SDS_P1;SDS_P2;PMS_P1;PMS_P2;Temp;Humidity;BMP_temperature;BMP_pressure;BME280_temperature;BME280_humidity;BME280_pressure;Samples;Min_cycle;Max_cycle;Signal;HPM_P1;HPM_P2
2021/05/01 00:00:13;;;;;;;21.77;19.63;;;9.30;78.80;;;;;;5034905;28;20177;-86
2021/05/01 00:02:39;;;;;;;20.30;18.43;;;9.20;78.80;;;;;;5036910;28;20207;-87
2021/05/01 00:05:05;;;;;;;18.73;17.10;;;9.20;78.80;;;;;;5037252;28;20772;-87
2021/05/01 00:07:31;;;;;;;21.13;19.23;;;9.20;78.30;;;;;;5030917;28;20812;-87
2021/05/01 00:09:56;;;;;;;20.63;18.83;;;9.20;78.80;;;;;;5034149;28;20188;-87
2021/05/01 00:12:22;;;;;;;21.40;19.50;;;9.20;79.70;;;;;;5032355;28;20184;-87
2021/05/01 00:14:47;;;;;;;20.63;18.83;;;9.20;79.00;;;;;;5036632;28;20685;-87
2021/05/01 00:17:13;;;;;;;20.73;18.47;;;9.20;78.90;;;;;;5035219;28;20347;-87
2021/05/01 00:19:39;;;;;;;20.07;18.27;;;9.20;78.80;;;;;;5036174;28;20275;-87
2021/05/01 00:22:05;;;;;;;21.07;18.97;;;9.20;78.40;;;;;;5036828;28;20311;-87
2021/05/01 00:24:30;;;;;;;19.27;17.57;;;9.20;78.90;;;;;;5019324;28;20193;-87
2021/05/01 00:26:56;;;;;;;21.17;19.10;;;9.20;78.90;;;;;;5016818;28;20209;-87
2021/05/01 00:29:22;;;;;;;20.13;18.40;;;9.10;78.70;;;;;;5017088;28;20223;-87
2021/05/01 00:31:47;;;;;;;20.60;18.80;;;9.10;78.70;;;;;;5016678;28;20279;-86
2021/05/01 00:34:14;;;;;;;19.77;18.00;;;9.10;78.90;;;;;;5032205;28;20704;-87
2021/05/01 00:36:39;;;;;;;21.73;19.73;;;9.10;78.60;;;;;;5019860;28;20206;-87
2021/05/01 00:39:06;;;;;;;22.27;20.07;;;9.00;79.80;;;;;;5001309;28;20323;-87
2021/05/01 00:41:32;;;;;;;22.00;19.93;;;9.00;80.40;;;;;;5007619;28;20186;-87
2021/05/01 00:43:58;;;;;;;23.23;21.03;;;8.90;80.70;;;;;;5034507;28;20264;-87
2021/05/01 00:46:24;;;;;;;19.47;17.77;;;8.90;79.20;;;;;;5034948;28;20224;-87
2021/05/01 00:48:50;;;;;;;19.17;17.47;;;8.90;79.20;;;;;;5036063;28;20221;-87
2021/05/01 00:51:16;;;;;;;18.67;17.03;;;8.90;78.80;;;;;;5024010;28;20193;-87
2021/05/01 00:53:42;;;;;;;19.63;17.73;;;8.90;78.40;;;;;;5037485;28;20188;-87
2021/05/01 00:56:07;;;;;;;20.67;18.67;;;8.90;78.40;;;;;;5031998;28;20202;-87
2021/05/01 00:58:33;;;;;;;21.07;18.97;;;9.00;77.90;;;;;;5018444;28;20252;-87
2021/05/01 01:03:38;;;;;;;21.40;19.47;;;8.90;78.20;;;;;;5018543;28;20738;-87
2021/05/01 01:06:05;;;;;;;20.50;18.60;;;8.80;78.60;;;;;;5023504;28;20252;-87
2021/05/01 01:08:31;;;;;;;19.03;17.37;;;8.80;78.90;;;;;;5033677;28;20806;-87
2021/05/01 01:10:57;;;;;;;21.23;19.27;;;8.80;79.10;;;;;;5018432;28;20193;-87
2021/05/01 01:13:23;;;;;;;19.13;17.27;;;8.80;79.00;;;;;;5021604;28;20181;-87
2021/05/01 01:15:49;;;;;;;19.37;17.47;;;8.80;78.10;;;;;;5011747;28;20169;-87
2021/05/01 01:18:15;;;;;;;18.97;17.27;;;8.80;77.80;;;;;;5012599;28;20201;-87
2021/05/01 01:20:41;;;;;;;18.07;16.47;;;8.80;77.10;;;;;;5013175;28;20551;-87
2021/05/01 01:23:07;;;;;;;18.83;17.03;;;8.80;76.90;;;;;;5031686;28;20196;-87
2021/05/01 01:25:32;;;;;;;19.93;18.03;;;8.80;76.40;;;;;;5031229;28;20181;-87
2021/05/01 01:27:59;;;;;;;21.10;19.33;;;8.70;77.10;;;;;;5031587;28;20287;-87
2021/05/01 01:30:29;;;;;;;20.10;18.27;;;8.50;77.30;;;;;;5032371;28;20275;-86
2021/05/01 01:32:56;;;;;;;18.17;16.57;;;8.40;78.10;;;;;;5018258;28;20181;-87
2021/05/01 01:35:23;;;;;;;18.87;17.07;;;8.40;78.00;;;;;;5019483;28;20186;-87
2021/05/01 01:37:49;;;;;;;18.47;16.67;;;8.50;78.00;;;;;;5024447;28;20639;-87
2021/05/01 01:40:17;;;;;;;17.50;15.80;;;8.50;77.80;;;;;;5024994;28;20231;-87
2021/05/01 01:42:43;;;;;;;18.33;16.67;;;8.40;78.20;;;;;;5033128;28;20642;-87
2021/05/01 01:45:11;;;;;;;19.43;17.60;;;8.50;78.20;;;;;;5035117;28;20204;-87
2021/05/01 01:47:37;;;;;;;20.87;18.87;;;8.50;77.60;;;;;;5035922;28;20200;-87
2021/05/01 01:50:08;;;;;;;19.53;17.60;;;8.40;77.80;;;;;;5035770;28;20177;-87
2021/05/01 01:52:36;;;;;;;18.80;17.10;;;8.20;78.30;;;;;;5035376;28;20177;-86
2021/05/01 01:55:06;;;;;;;18.17;16.53;;;8.10;79.20;;;;;;5026106;28;20188;-87
2021/05/01 01:57:31;;;;;;;17.63;15.73;;;8.10;79.30;;;;;;5030949;28;20217;-87
2021/05/01 01:59:57;;;;;;;17.90;16.20;;;8.20;78.60;;;;;;5019220;28;20216;-87
2021/05/01 02:02:23;;;;;;;17.63;16.03;;;8.20;78.20;;;;;;5019084;28;20181;-87
2021/05/01 02:04:49;;;;;;;17.30;15.67;;;8.20;78.60;;;;;;5036941;28;20282;-87
2021/05/01 02:07:14;;;;;;;18.00;16.27;;;8.20;77.60;;;;;;5031335;28;20209;-87
2021/05/01 02:09:40;;;;;;;19.97;18.07;;;8.30;77.30;;;;;;5020312;28;20200;-87
2021/05/01 02:12:06;;;;;;;18.30;16.47;;;8.10;77.90;;;;;;5019102;28;20192;-87
2021/05/01 02:14:32;;;;;;;17.77;16.17;;;8.00;78.10;;;;;;5022969;28;20628;-86
2021/05/01 02:16:57;;;;;;;16.63;15.13;;;8.10;77.50;;;;;;5033161;28;20217;-86
2021/05/01 02:19:23;;;;;;;18.23;16.63;;;8.00;77.50;;;;;;5034779;28;20223;-86
2021/05/01 02:21:49;;;;;;;18.10;16.33;;;8.00;77.70;;;;;;5023468;28;20292;-87
2021/05/01 02:24:15;;;;;;;18.23;16.37;;;8.00;77.40;;;;;;5018555;28;20197;-87
2021/05/01 02:26:41;;;;;;;18.67;16.90;;;8.00;77.10;;;;;;5034758;28;20261;-87
2021/05/01 02:29:06;;;;;;;18.97;17.17;;;7.90;77.20;;;;;;5028136;28;20264;-86
2021/05/01 02:31:32;;;;;;;17.50;15.80;;;7.80;77.80;;;;;;5016574;28;20182;-87
2021/05/01 02:33:58;;;;;;;15.47;14.00;;;7.80;78.40;;;;;;5029519;28;20291;-87
2021/05/01 02:36:23;;;;;;;16.93;15.37;;;7.80;78.30;;;;;;5015579;28;20216;-86
2021/05/01 02:38:50;;;;;;;15.93;14.53;;;7.90;78.70;;;;;;5028567;28;20200;-87
2021/05/01 02:41:16;;;;;;;16.30;14.70;;;7.80;77.90;;;;;;5035953;28;20181;-87
2021/05/01 02:43:42;;;;;;;16.43;14.93;;;7.90;77.90;;;;;;5036991;28;20176;-86
2021/05/01 02:46:07;;;;;;;16.53;14.93;;;8.00;77.60;;;;;;5022368;28;20197;-87
2021/05/01 02:48:33;;;;;;;16.30;14.73;;;7.90;77.00;;;;;;5037572;28;20208;-86
2021/05/01 02:50:59;;;;;;;17.17;15.53;;;7.90;77.60;;;;;;5018710;28;20189;-87
2021/05/01 02:53:25;;;;;;;15.67;14.20;;;7.90;77.30;;;;;;5036908;28;20255;-87
2021/05/01 02:55:50;;;;;;;16.10;14.50;;;8.00;78.30;;;;;;5021828;28;20292;-87
2021/05/01 02:58:16;;;;;;;14.93;13.43;;;8.00;79.10;;;;;;5030877;28;20216;-87
2021/05/01 03:00:42;;;;;;;15.00;13.60;;;8.00;76.70;;;;;;5015994;28;20666;-87
2021/05/01 03:03:08;;;;;;;14.80;13.40;;;8.00;76.00;;;;;;5018223;28;20181;-86
2021/05/01 03:05:34;;;;;;;15.10;13.70;;;7.90;75.80;;;;;;5022025;28;20182;-87
2021/05/01 03:07:59;;;;;;;15.10;13.70;;;7.80;76.10;;;;;;5029406;28;20239;-86
2021/05/01 03:10:26;;;;;;;14.87;13.47;;;7.70;76.60;;;;;;5023462;28;20190;-86
2021/05/01 03:12:53;;;;;;;13.67;12.47;;;7.60;77.10;;;;;;5023413;28;20216;-87
2021/05/01 03:15:19;;;;;;;13.40;12.20;;;7.60;77.70;;;;;;5025919;28;20208;-86
2021/05/01 03:17:46;;;;;;;13.43;12.23;;;7.50;76.60;;;;;;5035164;28;20213;-86
2021/05/01 03:20:13;;;;;;;15.33;13.93;;;7.50;76.50;;;;;;5036213;28;20660;-86
2021/05/01 03:22:40;;;;;;;13.63;12.43;;;7.50;75.70;;;;;;5034021;28;20201;-86
2021/05/01 03:25:08;;;;;;;14.30;13.00;;;7.40;76.40;;;;;;5029175;28;20188;-86
2021/05/01 03:27:34;;;;;;;14.23;12.83;;;7.40;76.20;;;;;;5036982;28;20218;-86
2021/05/01 03:30:00;;;;;;;15.60;14.20;;;7.40;76.70;;;;;;5029229;28;20394;-86
2021/05/01 03:32:26;;;;;;;15.20;13.77;;;7.30;77.00;;;;;;5019384;28;20662;-87
2021/05/01 03:34:51;;;;;;;14.50;13.20;;;7.30;77.10;;;;;;5036242;28;20196;-86
2021/05/01 03:37:17;;;;;;;14.40;13.03;;;7.40;76.50;;;;;;5036148;28;20865;-86
2021/05/01 03:39:43;;;;;;;14.17;12.77;;;7.30;77.00;;;;;;5032724;28;20181;-85
2021/05/01 03:42:09;;;;;;;13.10;11.87;;;7.40;76.60;;;;;;5037699;28;20213;-86
2021/05/01 03:44:35;;;;;;;13.87;12.57;;;7.40;76.20;;;;;;5040968;28;20185;-86
2021/05/01 03:47:02;;;;;;;14.93;12.43;;;7.40;75.90;;;;;;5040422;28;20553;-86
2021/05/01 03:49:27;;;;;;;14.53;13.23;;;7.40;75.90;;;;;;5016277;28;20193;-86
2021/05/01 03:51:53;;;;;;;13.23;12.03;;;7.30;76.00;;;;;;5023718;28;20189;-86
2021/05/01 03:54:19;;;;;;;14.70;13.40;;;7.40;76.30;;;;;;5042715;28;20664;-86
2021/05/01 03:56:44;;;;;;;14.00;12.60;;;7.30;76.10;;;;;;5026465;28;20213;-85
2021/05/01 03:59:11;;;;;;;12.50;11.30;;;7.20;76.50;;;;;;5017061;28;20185;-86
2021/05/01 04:01:37;;;;;;;13.43;12.13;;;7.20;76.60;;;;;;5025596;28;20177;-86
2021/05/01 04:04:03;;;;;;;13.27;12.07;;;7.10;76.50;;;;;;5036027;28;20206;-86
2021/05/01 04:06:29;;;;;;;12.23;11.13;;;7.10;76.50;;;;;;5034959;28;20196;-86
2021/05/01 04:08:55;;;;;;;12.73;11.47;;;7.20;76.20;;;;;;5018337;28;20555;-86
2021/05/01 04:11:21;;;;;;;15.17;12.03;;;7.20;76.00;;;;;;5016866;28;20217;-86
2021/05/01 04:13:47;;;;;;;13.40;12.20;;;7.20;75.70;;;;;;5015932;28;20181;-86
2021/05/01 04:16:17;;;;;;;13.77;12.13;;;7.20;75.90;;;;;;5018221;28;20296;-86
2021/05/01 04:18:44;;;;;;;13.93;12.53;;;7.30;76.10;;;;;;5031883;28;20204;-84
2021/05/01 04:21:10;;;;;;;14.23;12.83;;;7.30;75.70;;;;;;5037118;28;20749;-85
2021/05/01 04:23:36;;;;;;;13.30;12.10;;;7.30;75.70;;;;;;5020800;28;20185;-85
2021/05/01 04:26:03;;;;;;;13.40;12.10;;;7.20;75.60;;;;;;5021313;28;20176;-85
2021/05/01 04:28:29;;;;;;;13.90;12.53;;;7.30;75.80;;;;;;5035221;28;20208;-84
2021/05/01 04:30:56;;;;;;;11.60;10.60;;;7.20;75.30;;;;;;5035659;28;20192;-84
2021/05/01 04:33:22;;;;;;;12.23;11.13;;;7.20;75.30;;;;;;5036030;28;20195;-85
2021/05/01 04:35:48;;;;;;;12.70;11.60;;;7.20;75.40;;;;;;5028494;28;20691;-85
2021/05/01 04:38:15;;;;;;;11.83;10.83;;;7.20;75.90;;;;;;5029200;28;20208;-85
2021/05/01 04:40:41;;;;;;;12.57;11.27;;;7.20;75.90;;;;;;5024582;28;20190;-84
2021/05/01 04:43:09;;;;;;;12.70;11.53;;;7.20;75.70;;;;;;5016238;28;20189;-85
2021/05/01 04:45:35;;;;;;;12.60;11.40;;;7.20;75.60;;;;;;5017969;28;20194;-84
2021/05/01 04:48:01;;;;;;;12.83;11.63;;;7.30;75.70;;;;;;5016128;28;20220;-83
2021/05/01 04:50:26;;;;;;;15.57;14.07;;;7.20;75.50;;;;;;5017150;28;20177;-84
2021/05/01 04:52:52;;;;;;;12.90;11.60;;;7.10;75.70;;;;;;5014873;28;20204;-84
2021/05/01 04:55:18;;;;;;;13.57;12.03;;;7.00;76.80;;;;;;5023099;28;20700;-85
2021/05/01 04:57:45;;;;;;;11.67;10.63;;;7.00;76.90;;;;;;5036939;28;20240;-85
2021/05/01 05:00:13;;;;;;;14.03;12.73;;;7.00;76.70;;;;;;5035987;28;20232;-85
2021/05/01 05:02:39;;;;;;;12.33;11.23;;;6.90;75.90;;;;;;5017145;28;20192;-85
2021/05/01 05:05:06;;;;;;;13.07;11.80;;;6.90;78.00;;;;;;5018387;28;20230;-85
2021/05/01 05:07:32;;;;;;;14.67;13.07;;;6.80;77.10;;;;;;5031715;28;20305;-86
2021/05/01 05:09:58;;;;;;;15.60;14.10;;;6.60;78.20;;;;;;5027202;28;20681;-85
2021/05/01 05:12:24;;;;;;;15.57;14.07;;;6.70;78.80;;;;;;5014634;28;20177;-86
2021/05/01 05:14:50;;;;;;;15.57;14.10;;;6.70;79.40;;;;;;5020136;28;20551;-86
2021/05/01 05:17:16;;;;;;;17.07;15.43;;;6.60;79.70;;;;;;5021513;28;20205;-87
2021/05/01 05:19:42;;;;;;;15.63;13.83;;;6.60;80.30;;;;;;5033773;28;20169;-86
2021/05/01 05:22:08;;;;;;;14.93;13.43;;;6.80;79.60;;;;;;4988479;28;20181;-87
2021/05/01 05:24:36;;;;;;;15.43;13.93;;;7.00;79.20;;;;;;5017866;28;20193;-87
2021/05/01 05:27:02;;;;;;;15.90;14.37;;;7.10;78.80;;;;;;5031295;28;20292;-87
2021/05/01 05:29:28;;;;;;;16.33;14.73;;;7.20;78.70;;;;;;5032605;28;20196;-87
2021/05/01 05:31:53;;;;;;;18.47;16.77;;;7.30;79.20;;;;;;5034137;28;20185;-87
2021/05/01 05:34:19;;;;;;;15.87;14.47;;;7.30;79.60;;;;;;5038182;28;20197;-88
2021/05/01 05:36:45;;;;;;;15.57;14.07;;;7.40;79.90;;;;;;5030234;28;20209;-87
2021/05/01 05:39:10;;;;;;;16.40;14.90;;;7.50;79.90;;;;;;5021245;28;20239;-87
2021/05/01 05:41:36;;;;;;;15.57;14.17;;;7.60;80.20;;;;;;5024971;28;20184;-87
2021/05/01 05:44:04;;;;;;;17.33;15.63;;;7.60;80.30;;;;;;5029454;28;20185;-87
2021/05/01 05:46:29;;;;;;;14.80;13.50;;;7.60;81.10;;;;;;5019156;28;20173;-87
2021/05/01 05:48:55;;;;;;;14.13;12.83;;;7.70;81.10;;;;;;5021393;28;20283;-87
2021/05/01 05:51:21;;;;;;;15.77;14.27;;;7.80;81.50;;;;;;5036644;28;20248;-86
2021/05/01 05:53:47;;;;;;;15.83;14.43;;;7.90;83.30;;;;;;5037648;28;20191;-86
2021/05/01 05:56:14;;;;;;;16.63;15.13;;;7.90;83.30;;;;;;5037587;28;20587;-86
2021/05/01 05:58:41;;;;;;;16.53;15.07;;;7.70;85.10;;;;;;5037588;28;20211;-86
2021/05/01 06:01:07;;;;;;;17.80;16.20;;;7.60;86.70;;;;;;5034752;28;20907;-87
2021/05/01 06:03:34;;;;;;;17.27;15.67;;;7.80;86.00;;;;;;5036111;28;20173;-87
2021/05/01 06:06:04;;;;;;;19.83;18.10;;;8.00;85.60;;;;;;5035716;28;20724;-86
2021/05/01 06:08:32;;;;;;;20.07;18.07;;;8.00;86.40;;;;;;5035707;28;20452;-86
2021/05/01 06:10:58;;;;;;;20.57;18.67;;;8.10;86.00;;;;;;5035049;28;20177;-86
2021/05/01 06:13:26;;;;;;;21.03;19.03;;;8.10;87.00;;;;;;5033536;28;20212;-86
2021/05/01 06:15:55;;;;;;;22.33;19.23;;;8.20;87.10;;;;;;5037601;28;20173;-86
2021/05/01 06:18:23;;;;;;;18.50;16.60;;;8.30;86.60;;;;;;5036333;28;20220;-86
2021/05/01 06:20:49;;;;;;;20.67;18.50;;;8.40;85.60;;;;;;5034539;28;20181;-86
2021/05/01 06:23:18;;;;;;;19.13;17.43;;;8.60;85.00;;;;;;5034989;28;20684;-86
2021/05/01 06:25:45;;;;;;;21.80;19.77;;;8.70;84.90;;;;;;5034722;28;20181;-85
2021/05/01 06:28:12;;;;;;;20.60;18.73;;;8.80;85.60;;;;;;5036016;28;20215;-84
2021/05/01 06:30:40;;;;;;;27.20;24.60;;;9.00;84.70;;;;;;5035300;28;20275;-86
2021/05/01 06:33:09;;;;;;;24.87;22.67;;;9.00;83.60;;;;;;5032474;28;20200;-85
2021/05/01 06:35:37;;;;;;;25.70;23.20;;;9.10;83.60;;;;;;5035009;28;20208;-85
2021/05/01 06:38:03;;;;;;;27.23;24.77;;;9.10;83.80;;;;;;5033996;28;20217;-85
2021/05/01 06:40:33;;;;;;;30.33;27.57;;;9.20;83.80;;;;;;5036412;28;20183;-86
2021/05/01 06:43:12;;;;;;;29.03;26.43;;;9.20;85.20;;;;;;5035664;28;20205;-86
2021/05/01 06:45:40;;;;;;;32.93;29.90;;;9.10;85.60;;;;;;5037585;28;20245;-83
2021/05/01 06:48:08;;;;;;;33.57;30.40;;;9.10;86.30;;;;;;5036539;28;20251;-84
2021/05/01 06:50:34;;;;;;;32.70;29.60;;;9.10;86.10;;;;;;5034383;28;20186;-83
2021/05/01 06:53:01;;;;;;;33.63;30.33;;;9.10;85.60;;;;;;5032219;28;20240;-84
2021/05/01 06:55:31;;;;;;;29.27;26.47;;;9.20;85.60;;;;;;5037961;28;20280;-84
2021/05/01 06:57:59;;;;;;;31.13;28.00;;;9.20;85.50;;;;;;5038470;28;20280;-84
2021/05/01 07:00:27;;;;;;;31.70;28.33;;;9.10;85.80;;;;;;5042336;28;20210;-84
2021/05/01 07:03:06;;;;;;;32.07;28.80;;;9.20;86.00;;;;;;5039437;28;20490;-85
2021/05/01 07:05:34;;;;;;;30.93;28.03;;;9.20;86.10;;;;;;5018896;28;20186;-85
2021/05/01 07:08:00;;;;;;;32.33;29.03;;;9.20;86.10;;;;;;5038667;28;20197;-85
2021/05/01 07:10:25;;;;;;;31.17;28.10;;;9.30;86.30;;;;;;5034775;28;20284;-84
2021/05/01 07:12:51;;;;;;;31.67;28.43;;;9.30;85.40;;;;;;5035883;28;20615;-84
2021/05/01 07:15:18;;;;;;;30.27;27.47;;;9.30;85.60;;;;;;5036826;28;20279;-84
2021/05/01 07:17:49;;;;;;;30.63;27.73;;;9.50;85.20;;;;;;5038742;28;20217;-84
2021/05/01 07:20:14;;;;;;;28.30;25.43;;;9.60;85.00;;;;;;5035107;28;20189;-86
2021/05/01 07:22:41;;;;;;;29.97;27.00;;;9.70;83.80;;;;;;5024959;28;20268;-85
2021/05/01 07:25:09;;;;;;;28.50;25.80;;;9.80;83.20;;;;;;5027202;28;20272;-86
2021/05/01 07:28:05;;;;;;;31.33;28.43;;;9.90;82.90;;;;;;5028922;28;20213;-85
2021/05/01 07:30:37;;;;;;;28.40;25.60;;;9.90;82.70;;;;;;5006333;28;20209;-85
2021/05/01 07:33:17;;;;;;;28.10;25.30;;;9.90;81.60;;;;;;5033103;28;20255;-85
2021/05/01 07:35:49;;;;;;;27.77;25.07;;;10.00;80.60;;;;;;5019550;28;20189;-86
2021/05/01 07:38:16;;;;;;;27.20;24.60;;;10.10;81.00;;;;;;5021952;28;20217;-85
2021/05/01 07:40:43;;;;;;;28.13;25.43;;;10.10;79.70;;;;;;5035172;28;20208;-85
2021/05/01 07:43:14;;;;;;;27.20;24.60;;;10.20;80.00;;;;;;5034609;28;20705;-84
2021/05/01 07:45:39;;;;;;;23.00;20.83;;;10.20;79.80;;;;;;5025341;28;20202;-86
2021/05/01 07:48:12;;;;;;;20.63;18.60;;;10.20;75.30;;;;;;5026449;28;20251;-86
2021/05/01 07:50:37;;;;;;;18.47;16.77;;;10.30;73.20;;;;;;5033896;28;20223;-84
2021/05/01 07:53:04;;;;;;;17.57;15.90;;;10.30;72.70;;;;;;5029908;28;20188;-84
2021/05/01 07:55:30;;;;;;;18.70;16.90;;;10.50;73.20;;;;;;5023910;28;20197;-86
2021/05/01 07:57:55;;;;;;;19.70;17.90;;;10.60;72.10;;;;;;5032618;28;20216;-86
2021/05/01 08:00:22;;;;;;;18.40;16.67;;;10.80;72.40;;;;;;5015927;28;20190;-88
2021/05/01 08:02:48;;;;;;;16.77;15.23;;;10.80;71.30;;;;;;5016766;28;20186;-86
2021/05/01 08:05:18;;;;;;;17.47;15.60;;;10.90;69.50;;;;;;5015843;28;20720;-85
2021/05/01 08:07:44;;;;;;;16.00;14.57;;;10.90;69.80;;;;;;5033773;28;20580;-87
2021/05/01 08:10:10;;;;;;;15.07;13.67;;;10.90;70.30;;;;;;5036864;28;20192;-86
2021/05/01 08:12:37;;;;;;;14.73;13.43;;;11.00;68.60;;;;;;5041343;28;20283;-87
2021/05/01 08:15:05;;;;;;;14.63;13.33;;;11.00;69.20;;;;;;5038783;28;20254;-88
2021/05/01 08:17:30;;;;;;;15.70;14.10;;;11.00;68.00;;;;;;5024619;28;20212;-85
2021/05/01 08:19:56;;;;;;;15.53;14.13;;;11.10;68.70;;;;;;5044708;28;20182;-85
2021/05/01 08:22:22;;;;;;;15.83;14.37;;;11.20;68.40;;;;;;5055740;28;20172;-86
2021/05/01 08:24:48;;;;;;;16.23;14.80;;;11.20;67.80;;;;;;5047871;28;20605;-86
2021/05/01 08:27:14;;;;;;;16.23;14.83;;;11.20;68.40;;;;;;5036785;28;20269;-86
2021/05/01 08:29:40;;;;;;;16.50;15.00;;;11.30;68.40;;;;;;5038205;28;20199;-86
2021/05/01 08:32:06;;;;;;;17.57;15.97;;;11.40;67.90;;;;;;5028505;28;20221;-85
2021/05/01 08:34:32;;;;;;;16.40;14.80;;;11.40;67.70;;;;;;5037945;28;20665;-87
2021/05/01 08:36:58;;;;;;;17.27;15.67;;;11.50;67.00;;;;;;5033291;28;20228;-86
2021/05/01 08:39:23;;;;;;;16.37;15.00;;;11.40;66.50;;;;;;5020429;28;20635;-86
2021/05/01 08:41:50;;;;;;;16.63;15.13;;;11.40;67.50;;;;;;5021068;28;20183;-87
2021/05/01 08:44:16;;;;;;;17.63;16.10;;;11.40;67.50;;;;;;5002793;28;20277;-86
2021/05/01 08:46:44;;;;;;;16.63;15.07;;;11.50;67.20;;;;;;5036061;28;20213;-87
2021/05/01 08:49:11;;;;;;;17.40;15.60;;;11.50;66.90;;;;;;5036804;28;20178;-87
2021/05/01 08:51:40;;;;;;;18.90;17.10;;;11.50;66.80;;;;;;5031195;28;20198;-86
2021/05/01 08:54:06;;;;;;;15.57;14.23;;;11.60;67.10;;;;;;5015713;28;20178;-86
2021/05/01 08:56:31;;;;;;;17.07;15.53;;;11.60;66.90;;;;;;5028186;28;20221;-87
2021/05/01 08:58:58;;;;;;;16.13;14.53;;;11.60;67.40;;;;;;5037519;28;20576;-86
2021/05/01 09:01:27;;;;;;;17.77;16.10;;;11.70;66.80;;;;;;5037251;28;20273;-86
2021/05/01 09:03:54;;;;;;;17.23;15.73;;;11.70;66.00;;;;;;5037356;28;20210;-87
2021/05/01 09:06:22;;;;;;;17.90;16.20;;;11.60;65.90;;;;;;5037728;28;20610;-86
2021/05/01 09:08:57;;;;;;;17.43;15.83;;;11.60;66.90;;;;;;5037877;28;20205;-88
2021/05/01 09:11:41;;;;;;;17.67;16.07;;;11.70;66.80;;;;;;5023679;28;20182;-88
2021/05/01 09:14:26;;;;;;;17.40;15.80;;;11.70;67.20;;;;;;5023884;28;20192;-89
2021/05/01 09:17:01;;;;;;;17.50;15.70;;;11.90;65.80;;;;;;5040990;28;20219;-88
2021/05/01 09:19:40;;;;;;;17.80;16.10;;;12.10;64.10;;;;;;5024385;28;20177;-87
2021/05/01 09:22:12;;;;;;;18.83;17.13;;;12.10;65.20;;;;;;5021090;28;20227;-88
2021/05/01 09:24:38;;;;;;;23.20;20.90;;;12.20;63.80;;;;;;5022288;28;20198;-88
2021/05/01 09:27:06;;;;;;;20.10;18.20;;;12.20;64.50;;;;;;5021486;28;20207;-87
2021/05/01 09:29:38;;;;;;;20.10;18.23;;;12.30;65.70;;;;;;5036782;28;20277;-87
2021/05/01 09:32:06;;;;;;;19.27;17.57;;;12.50;62.70;;;;;;5041459;28;20178;-88
2021/05/01 09:34:44;;;;;;;19.53;17.40;;;12.60;63.00;;;;;;5041876;28;20240;-88
2021/05/01 09:37:11;;;;;;;19.10;17.20;;;12.80;61.70;;;;;;5041433;28;20210;-87
2021/05/01 09:39:57;;;;;;;19.20;17.33;;;12.80;61.40;;;;;;5039707;28;20194;-88
2021/05/01 09:42:24;;;;;;;18.57;16.83;;;12.80;60.70;;;;;;5042385;28;20171;-87
2021/05/01 09:45:10;;;;;;;18.13;16.63;;;12.50;62.20;;;;;;5042686;28;20189;-87
2021/05/01 09:47:36;;;;;;;19.03;17.23;;;12.70;62.30;;;;;;5038497;28;20290;-86
2021/05/01 09:50:21;;;;;;;20.03;18.13;;;12.80;62.30;;;;;;5040514;28;20184;-87
2021/05/01 09:53:12;;;;;;;21.47;17.23;;;13.00;59.90;;;;;;5035449;28;20184;-87
2021/05/01 09:55:40;;;;;;;18.53;16.83;;;13.20;58.80;;;;;;5038976;28;20157;-87
2021/05/01 09:58:16;;;;;;;18.10;16.40;;;13.30;60.10;;;;;;5021900;28;20217;-88
2021/05/01 10:00:43;;;;;;;17.97;16.30;;;13.20;58.80;;;;;;5017306;28;20560;-87
2021/05/01 10:03:18;;;;;;;22.00;20.10;;;13.10;60.10;;;;;;5020483;28;20260;-87
2021/05/01 10:05:46;;;;;;;19.60;17.70;;;13.10;60.50;;;;;;5038528;28;20273;-86
2021/05/01 10:08:13;;;;;;;20.67;18.67;;;13.30;59.30;;;;;;5037661;28;20242;-87
2021/05/01 10:10:42;;;;;;;19.67;17.83;;;13.60;59.00;;;;;;5039690;28;20226;-87
2021/05/01 10:13:09;;;;;;;19.90;18.10;;;13.70;58.50;;;;;;5040065;28;20204;-88
2021/05/01 10:15:35;;;;;;;19.97;18.27;;;13.90;57.70;;;;;;5040361;28;20212;-85
2021/05/01 10:18:17;;;;;;;20.93;18.97;;;14.00;55.90;;;;;;5042682;28;20225;-85
2021/05/01 10:20:48;;;;;;;19.53;17.73;;;14.00;58.10;;;;;;5040717;28;20181;-85
2021/05/01 10:23:19;;;;;;;20.23;18.43;;;14.10;57.90;;;;;;5039654;28;20166;-85
2021/05/01 10:25:46;;;;;;;19.00;17.33;;;14.30;58.00;;;;;;5022523;28;20182;-85
2021/05/01 10:28:20;;;;;;;20.10;18.10;;;14.50;55.60;;;;;;5021682;28;20198;-85
2021/05/01 10:30:54;;;;;;;19.67;17.77;;;14.50;55.10;;;;;;5023561;28;20201;-85
2021/05/01 10:33:39;;;;;;;19.50;17.70;;;14.50;55.10;;;;;;5031346;28;20174;-85
2021/05/01 10:36:31;;;;;;;19.90;17.83;;;14.30;54.70;;;;;;5038937;28;20173;-85
2021/05/01 10:39:09;;;;;;;19.90;18.00;;;14.30;54.80;;;;;;5034693;28;20204;-86
2021/05/01 10:41:35;;;;;;;20.03;18.27;;;13.90;55.80;;;;;;5040417;28;20183;-85
2021/05/01 10:44:06;;;;;;;18.67;16.97;;;13.90;56.80;;;;;;5031552;28;20203;-86
2021/05/01 10:46:39;;;;;;;17.70;16.07;;;13.90;56.40;;;;;;5019929;28;20173;-87
2021/05/01 10:49:08;;;;;;;22.17;17.33;;;13.90;56.40;;;;;;5034453;28;20166;-86
2021/05/01 10:51:38;;;;;;;18.63;16.97;;;14.00;56.20;;;;;;5042072;28;20189;-86
2021/05/01 10:54:20;;;;;;;18.37;16.50;;;14.00;56.30;;;;;;5041278;28;20248;-87
2021/05/01 10:56:54;;;;;;;18.90;17.10;;;14.20;54.80;;;;;;5036516;28;20200;-87
2021/05/01 10:59:22;;;;;;;19.67;17.77;;;14.10;54.90;;;;;;5041445;28;20182;-87
2021/05/01 11:01:49;;;;;;;19.40;17.57;;;13.90;56.10;;;;;;5023093;28;20185;-87
2021/05/01 11:04:31;;;;;;;19.00;17.37;;;13.90;57.10;;;;;;5038591;28;20605;-88
2021/05/01 11:07:08;;;;;;;20.33;17.97;;;13.90;57.30;;;;;;5034941;28;20263;-87
2021/05/01 11:09:40;;;;;;;19.77;17.97;;;14.20;55.30;;;;;;5037242;28;20587;-86
2021/05/01 11:12:09;;;;;;;19.13;17.33;;;14.30;54.50;;;;;;5019461;28;20269;-86
2021/05/01 11:14:40;;;;;;;19.83;18.03;;;14.30;54.80;;;;;;5032231;28;20185;-89
2021/05/01 11:17:36;;;;;;;19.77;18.07;;;14.00;55.60;;;;;;5035557;28;20212;-87
2021/05/01 11:20:09;;;;;;;21.27;19.33;;;14.10;57.50;;;;;;5036322;28;20182;-85
2021/05/01 11:22:37;;;;;;;20.47;18.67;;;14.10;56.20;;;;;;5029799;28;20181;-87
2021/05/01 11:25:09;;;;;;;21.67;19.70;;;14.00;56.50;;;;;;5039616;28;20652;-87
2021/05/01 11:27:36;;;;;;;21.80;19.70;;;14.00;56.00;;;;;;5034775;28;20299;-86
2021/05/01 11:30:03;;;;;;;20.37;18.23;;;14.00;58.10;;;;;;5037614;28;20199;-88
2021/05/01 11:32:29;;;;;;;20.23;18.43;;;14.10;56.50;;;;;;5023921;28;20189;-87
2021/05/01 11:35:12;;;;;;;19.47;17.77;;;14.10;55.90;;;;;;5032170;28;20288;-87
2021/05/01 11:37:47;;;;;;;20.60;18.70;;;14.10;56.60;;;;;;5038306;28;20707;-86
2021/05/01 11:42:42;;;;;;;22.23;20.13;;;14.00;55.10;;;;;;5018177;28;20679;-86
2021/05/01 11:45:40;;;;;;;19.63;17.83;;;14.10;55.30;;;;;;5016253;28;20178;-87
2021/05/01 11:48:12;;;;;;;20.83;18.87;;;14.10;56.10;;;;;;4966960;28;20205;-86
2021/05/01 11:50:41;;;;;;;20.77;18.80;;;14.00;55.10;;;;;;5018935;28;20204;-86
2021/05/01 11:53:35;;;;;;;22.50;20.33;;;14.20;55.10;;;;;;5016955;28;20268;-86
2021/05/01 11:56:15;;;;;;;22.23;20.13;;;14.30;55.40;;;;;;5019139;28;20178;-87
2021/05/01 11:58:42;;;;;;;21.67;19.67;;;14.40;54.90;;;;;;5008960;28;20198;-87
2021/05/01 12:01:18;;;;;;;21.43;19.33;;;14.50;54.90;;;;;;5020245;28;20281;-87
2021/05/01 12:04:01;;;;;;;21.47;19.47;;;14.30;55.60;;;;;;5002741;28;20288;-86
2021/05/01 12:06:40;;;;;;;20.43;18.47;;;14.50;55.10;;;;;;5010202;28;20185;-87
2021/05/01 12:09:18;;;;;;;21.43;19.43;;;14.60;55.40;;;;;;5004696;28;20591;-86
2021/05/01 12:11:46;;;;;;;23.03;21.03;;;14.70;54.60;;;;;;5001613;28;20205;-86
2021/05/01 12:14:13;;;;;;;22.00;19.80;;;14.90;54.40;;;;;;5014903;28;20212;-86
2021/05/01 12:16:42;;;;;;;22.93;20.63;;;15.00;56.80;;;;;;5020605;28;20231;-86
2021/05/01 12:19:18;;;;;;;21.97;20.07;;;15.20;54.40;;;;;;5022696;28;20180;-86
2021/05/01 12:21:44;;;;;;;25.17;22.77;;;15.20;54.50;;;;;;5022342;28;20233;-86
2021/05/01 12:24:29;;;;;;;30.57;27.33;;;15.10;54.90;;;;;;5020067;28;20558;-86
2021/05/01 12:26:55;;;;;;;24.00;21.83;;;15.20;54.90;;;;;;5021784;28;20214;-86
2021/05/01 12:29:28;;;;;;;19.47;17.77;;;15.10;52.90;;;;;;5021170;28;20194;-86
2021/05/01 12:32:05;;;;;;;20.20;18.40;;;15.10;51.80;;;;;;5021239;28;20227;-87
2021/05/01 12:34:46;;;;;;;23.20;20.93;;;15.30;52.60;;;;;;5021896;28;20185;-86
2021/05/01 12:37:12;;;;;;;25.00;22.63;;;15.30;52.50;;;;;;5022149;28;20323;-86
2021/05/01 12:39:38;;;;;;;22.23;20.13;;;15.40;52.00;;;;;;5020499;28;20260;-87
2021/05/01 12:42:19;;;;;;;20.37;18.57;;;15.30;53.40;;;;;;5020175;28;20355;-86
2021/05/01 12:44:47;;;;;;;18.20;16.60;;;15.30;52.10;;;;;;5008320;28;20205;-86